createdAt,value
2019-02-23T00:00:12.785Z,149.93
2019-02-23T00:02:43.900Z,168.90
2019-02-23T00:05:15.036Z,168.17
2019-02-23T00:07:46.086Z,147.83
2019-02-23T00:10:17.137Z,143.63
2019-02-23T00:12:48.216Z,166.83
2019-02-23T00:15:19.272Z,143.10
2019-02-23T00:17:50.334Z,131.27
2019-02-23T00:20:21.403Z,149.60
2019-02-23T00:22:52.457Z,128.57
2019-02-23T00:25:23.516Z,154.93
2019-02-23T00:27:54.557Z,141.90
2019-02-23T00:30:25.600Z,140.60
2019-02-23T00:32:56.658Z,188.80
2019-02-23T00:35:27.700Z,165.90
2019-02-23T00:37:58.758Z,177.17
2019-02-23T00:40:29.846Z,161.73
2019-02-23T00:43:00.882Z,155.77
2019-02-23T00:45:31.929Z,173.07
2019-02-23T00:48:02.978Z,161.67
2019-02-23T00:50:34.087Z,161.33
2019-02-23T00:53:05.122Z,174.20
2019-02-23T00:55:36.258Z,134.23
2019-02-23T00:58:07.323Z,144.27
2019-02-23T01:00:38.489Z,131.20
2019-02-23T01:03:09.539Z,160.47
2019-02-23T01:05:40.654Z,150.47
2019-02-23T01:08:11.700Z,137.97
2019-02-23T01:10:42.771Z,126.27
2019-02-23T01:13:13.801Z,143.50
2019-02-23T01:15:44.876Z,145.10
2019-02-23T01:18:15.942Z,145.43
2019-02-23T01:20:47.115Z,136.67
2019-02-23T01:23:18.307Z,118.63
2019-02-23T01:25:49.346Z,133.77
2019-02-23T01:28:20.408Z,121.93
2019-02-23T01:30:51.523Z,108.53
2019-02-23T01:33:22.606Z,136.53
2019-02-23T01:35:53.792Z,122.83
2019-02-23T01:38:25.038Z,110.63
2019-02-23T01:40:56.058Z,110.53
2019-02-23T01:43:27.117Z,111.00
2019-02-23T01:45:58.183Z,109.17
2019-02-23T01:48:29.249Z,119.60
2019-02-23T01:51:00.302Z,158.50
2019-02-23T01:53:31.339Z,127.40
2019-02-23T01:56:02.376Z,138.17
2019-02-23T01:58:33.466Z,141.03
2019-02-23T02:01:05.724Z,139.73
2019-02-23T02:03:36.768Z,148.27
2019-02-23T02:06:07.797Z,127.93
2019-02-23T02:08:38.928Z,132.57
2019-02-23T02:11:10.127Z,142.07
2019-02-23T02:13:41.219Z,139.83
2019-02-23T02:16:12.256Z,146.07
2019-02-23T02:18:43.314Z,147.73
2019-02-23T02:21:14.347Z,137.50
2019-02-23T02:23:45.644Z,165.90
2019-02-23T02:26:17.079Z,132.43
2019-02-23T02:28:48.732Z,145.50
2019-02-23T02:31:20.274Z,129.73
2019-02-23T02:34:09.515Z,134.13
2019-02-23T02:36:40.903Z,114.20
2019-02-23T02:39:14.366Z,121.37
2019-02-23T02:41:45.757Z,112.07
2019-02-23T02:44:17.391Z,119.27
2019-02-23T02:46:48.986Z,128.30
2019-02-23T02:49:20.596Z,135.80
2019-02-23T02:51:51.972Z,120.57
2019-02-23T02:54:23.440Z,140.40
2019-02-23T02:56:55.162Z,136.50
2019-02-23T02:59:26.728Z,132.03
2019-02-23T03:01:59.018Z,199.40
2019-02-23T03:04:30.731Z,197.57
2019-02-23T03:07:02.292Z,187.03
2019-02-23T03:09:33.763Z,172.27
2019-02-23T03:12:05.305Z,146.43
2019-02-23T03:14:36.953Z,157.63
2019-02-23T03:17:08.493Z,158.03
2019-02-23T03:19:40.010Z,145.67
2019-02-23T03:22:11.523Z,126.40
2019-02-23T03:24:42.963Z,121.30
2019-02-23T03:27:14.493Z,105.97
2019-02-23T03:29:45.970Z,121.00
2019-02-23T03:32:17.507Z,115.87
2019-02-23T03:34:48.989Z,142.87
2019-02-23T03:37:20.532Z,142.33
2019-02-23T03:39:52.065Z,131.80
2019-02-23T03:42:23.637Z,128.67
2019-02-23T03:44:55.069Z,113.67
2019-02-23T03:47:26.600Z,122.20
2019-02-23T03:49:58.099Z,102.73
2019-02-23T03:52:29.661Z,124.30
2019-02-23T03:55:01.420Z,116.73
2019-02-23T03:57:33.129Z,122.50
2019-02-23T04:00:04.772Z,122.57
2019-02-23T04:02:36.432Z,128.63
2019-02-23T04:05:08.218Z,140.50
2019-02-23T04:07:41.600Z,118.67
2019-02-23T04:10:13.114Z,124.97
2019-02-23T04:12:44.616Z,147.83
2019-02-23T04:15:16.218Z,139.97
2019-02-23T04:17:47.703Z,141.93
2019-02-23T04:20:19.318Z,152.07
2019-02-23T04:22:50.609Z,182.73
2019-02-23T04:25:22.136Z,168.60
2019-02-23T04:27:53.523Z,134.80
2019-02-23T04:30:25.018Z,163.80
2019-02-23T04:32:56.489Z,148.47
2019-02-23T04:35:28.088Z,146.23
2019-02-23T04:37:59.514Z,128.47
2019-02-23T04:40:31.196Z,150.30
2019-02-23T04:43:02.544Z,141.00
2019-02-23T04:45:34.166Z,163.80
2019-02-23T04:48:05.708Z,137.97
2019-02-23T04:50:37.303Z,192.47
2019-02-23T04:53:08.808Z,133.87
2019-02-23T04:55:40.231Z,159.63
2019-02-23T04:58:11.625Z,154.77
2019-02-23T05:00:45.021Z,163.17
2019-02-23T05:03:16.361Z,157.47
2019-02-23T05:05:47.884Z,185.03
2019-02-23T05:08:19.574Z,179.53
2019-02-23T05:10:51.085Z,174.20
2019-02-23T05:13:22.540Z,187.70
2019-02-23T05:15:54.159Z,243.57
2019-02-23T05:18:25.599Z,194.10
2019-02-23T05:20:57.136Z,148.20
2019-02-23T05:23:28.597Z,128.40
2019-02-23T05:26:00.162Z,132.27
2019-02-23T05:28:31.568Z,147.83
2019-02-23T05:31:03.290Z,121.23
2019-02-23T05:33:34.805Z,125.87
2019-02-23T05:36:06.420Z,132.37
2019-02-23T05:38:37.920Z,134.90
2019-02-23T05:41:09.674Z,132.03
2019-02-23T05:43:41.136Z,122.17
2019-02-23T05:46:12.778Z,114.80
2019-02-23T05:48:44.228Z,131.03
2019-02-23T05:51:15.919Z,126.43
2019-02-23T05:53:47.365Z,147.33
2019-02-23T05:56:18.944Z,141.93
2019-02-23T05:58:50.519Z,165.67
2019-02-23T06:01:22.050Z,157.67
2019-02-23T06:03:53.713Z,179.10
2019-02-23T06:06:25.352Z,161.80
2019-02-23T06:08:56.841Z,160.73
2019-02-23T06:11:28.379Z,175.80
2019-02-23T06:14:00.141Z,154.33
2019-02-23T06:16:31.694Z,171.27
2019-02-23T06:19:03.167Z,169.57
2019-02-23T06:21:34.689Z,146.40
2019-02-23T06:24:06.011Z,262.30
2019-02-23T06:26:37.697Z,248.97
2019-02-23T06:29:09.168Z,241.37
2019-02-23T06:31:40.781Z,246.77
2019-02-23T06:34:16.239Z,257.70
2019-02-23T06:36:45.617Z,248.10
2019-02-23T06:39:17.160Z,206.50
2019-02-23T06:41:49.913Z,207.27
2019-02-23T06:44:21.501Z,197.67
2019-02-23T06:46:52.970Z,198.00
2019-02-23T06:49:24.537Z,184.87
2019-02-23T06:52:04.023Z,202.50
2019-02-23T06:54:29.374Z,208.30
2019-02-23T06:57:00.923Z,211.57
2019-02-23T06:59:32.399Z,205.73
2019-02-23T07:02:04.016Z,258.83
2019-02-23T07:04:35.409Z,218.93
2019-02-23T07:07:07.047Z,202.67
2019-02-23T07:09:38.602Z,214.73
2019-02-23T07:12:10.053Z,183.60
2019-02-23T07:14:41.732Z,220.17
2019-02-23T07:17:13.145Z,182.50
2019-02-23T07:19:44.682Z,197.33
2019-02-23T07:22:16.405Z,207.33
2019-02-23T07:24:47.822Z,196.70
2019-02-23T07:27:19.557Z,200.13
2019-02-23T07:29:50.915Z,186.60
2019-02-23T07:32:22.458Z,223.37
2019-02-23T07:34:53.909Z,180.60
2019-02-23T07:37:25.559Z,224.70
2019-02-23T07:39:57.027Z,164.67
2019-02-23T07:42:28.545Z,193.93
2019-02-23T07:45:00.033Z,154.87
2019-02-23T07:47:31.482Z,159.03
2019-02-23T07:50:03.323Z,145.10
2019-02-23T07:52:34.791Z,194.60
2019-02-23T07:55:06.475Z,149.00
2019-02-23T07:57:37.891Z,146.77
2019-02-23T08:00:10.954Z,158.60
2019-02-23T08:02:42.539Z,140.30
2019-02-23T08:05:14.203Z,165.83
2019-02-23T08:07:45.623Z,129.47
2019-02-23T08:10:16.438Z,125.57
2019-02-23T08:12:48.322Z,130.80
2019-02-23T08:15:19.970Z,145.80
2019-02-23T08:17:51.335Z,120.70
2019-02-23T08:20:22.966Z,123.03
2019-02-23T08:22:54.570Z,140.50
2019-02-23T08:25:25.987Z,120.43
2019-02-23T08:27:57.698Z,123.57
2019-02-23T08:30:29.117Z,139.50
2019-02-23T08:33:00.547Z,112.70
2019-02-23T08:35:32.089Z,132.50
2019-02-23T08:38:03.748Z,162.43
2019-02-23T08:40:35.423Z,141.43
2019-02-23T08:43:06.755Z,160.07
2019-02-23T08:45:38.111Z,138.93
2019-02-23T08:48:09.650Z,127.43
2019-02-23T08:50:42.300Z,180.13
2019-02-23T08:53:13.659Z,129.30
2019-02-23T08:55:45.044Z,195.27
2019-02-23T08:58:16.854Z,157.93
2019-02-23T09:00:48.527Z,190.70
2019-02-23T09:03:20.192Z,211.90
2019-02-23T09:05:51.730Z,141.30
2019-02-23T09:08:23.379Z,176.23
2019-02-23T09:10:54.949Z,214.90
2019-02-23T09:13:26.500Z,202.37
2019-02-23T09:16:11.290Z,230.47
2019-02-23T09:18:42.415Z,164.63
2019-02-23T09:21:13.622Z,204.57
2019-02-23T09:23:44.783Z,281.03
2019-02-23T09:26:16.005Z,220.73
2019-02-23T09:28:47.151Z,110.73
2019-02-23T09:31:18.318Z,182.50
2019-02-23T09:33:49.400Z,113.57
2019-02-23T09:36:20.547Z,90.80
2019-02-23T09:38:51.752Z,82.03
2019-02-23T09:41:22.903Z,79.27
2019-02-23T09:43:53.941Z,102.07
2019-02-23T09:46:25.044Z,98.57
2019-02-23T09:48:56.470Z,107.73
2019-02-23T09:51:27.756Z,63.13
2019-02-23T09:53:58.793Z,87.37
2019-02-23T09:56:29.894Z,81.17
2019-02-23T09:59:00.977Z,143.17
2019-02-23T10:01:32.068Z,88.03
2019-02-23T10:04:03.096Z,68.17
2019-02-23T10:06:34.221Z,26.70
2019-02-23T10:09:07.152Z,19.03
2019-02-23T10:11:38.247Z,18.47
2019-02-23T10:14:09.261Z,15.07
2019-02-23T10:16:40.348Z,14.93
2019-02-23T10:19:11.362Z,16.00
2019-02-23T10:21:42.447Z,15.80
2019-02-23T10:24:13.458Z,13.20
2019-02-23T10:26:44.516Z,14.83
2019-02-23T10:29:15.596Z,12.23
2019-02-23T10:31:46.649Z,10.37
2019-02-23T10:34:17.669Z,12.83
2019-02-23T10:36:48.746Z,18.83
2019-02-23T10:39:19.867Z,10.37
2019-02-23T10:41:50.906Z,9.17
2019-02-23T10:44:21.953Z,9.87
2019-02-23T10:46:52.982Z,10.83
2019-02-23T10:49:27.421Z,9.67
2019-02-23T10:52:00.992Z,9.47
2019-02-23T10:54:32.766Z,10.10
2019-02-23T10:57:05.149Z,9.50
2019-02-23T10:59:36.246Z,9.43
2019-02-23T11:02:10.689Z,10.50
2019-02-23T11:04:42.564Z,8.83
2019-02-23T11:07:14.734Z,8.97
2019-02-23T11:09:50.205Z,8.33
2019-02-23T11:12:23.940Z,8.53
2019-02-23T11:14:55.835Z,8.20
2019-02-23T11:17:27.785Z,8.47
2019-02-23T11:19:59.619Z,8.50
2019-02-23T11:22:32.588Z,7.63
2019-02-23T11:25:04.220Z,8.03
2019-02-23T11:27:36.481Z,8.87
2019-02-23T11:30:10.236Z,8.57
2019-02-23T11:32:42.664Z,9.03
2019-02-23T11:35:17.133Z,9.30
2019-02-23T11:37:49.034Z,8.00
2019-02-23T11:40:23.398Z,8.97
2019-02-23T11:42:55.300Z,8.73
2019-02-23T11:45:27.779Z,7.63
2019-02-23T11:47:59.732Z,10.00
2019-02-23T11:50:33.679Z,9.23
2019-02-23T11:53:07.176Z,8.67
2019-02-23T11:55:38.255Z,9.17
2019-02-23T11:58:09.459Z,9.00
2019-02-23T12:00:40.467Z,8.97
2019-02-23T12:03:11.479Z,9.10
2019-02-23T12:05:42.634Z,9.57
2019-02-23T12:08:13.669Z,8.63
2019-02-23T12:10:44.731Z,11.60
2019-02-23T12:13:15.768Z,9.30
2019-02-23T12:15:51.640Z,9.33
2019-02-23T12:18:23.425Z,9.13
2019-02-23T12:20:54.820Z,8.63
2019-02-23T12:23:26.534Z,9.83
2019-02-23T12:25:58.380Z,9.57
2019-02-23T12:28:30.305Z,9.33
2019-02-23T12:31:02.280Z,11.90
2019-02-23T12:33:34.334Z,39.47
2019-02-23T12:36:08.784Z,12.13
2019-02-23T12:38:40.895Z,15.93
2019-02-23T12:41:12.516Z,11.40
2019-02-23T12:43:44.440Z,11.63
2019-02-23T12:46:16.469Z,18.03
2019-02-23T12:48:48.210Z,14.10
2019-02-23T12:51:20.194Z,13.57
2019-02-23T12:53:52.081Z,11.87
2019-02-23T12:56:24.110Z,14.30
2019-02-23T12:58:56.204Z,11.90
2019-02-23T13:01:28.140Z,12.20
2019-02-23T13:04:00.043Z,14.40
2019-02-23T13:06:31.821Z,9.47
2019-02-23T13:09:27.887Z,10.20
2019-02-23T13:12:33.754Z,13.27
2019-02-23T13:15:14.077Z,9.63
2019-02-23T13:18:56.856Z,10.20
2019-02-23T13:22:15.659Z,9.40
2019-02-23T13:25:45.329Z,8.37
2019-02-23T13:29:16.542Z,10.97
2019-02-23T13:32:34.232Z,9.03
2019-02-23T13:36:20.417Z,9.47
2019-02-23T13:40:01.772Z,8.47
2019-02-23T13:43:18.888Z,8.20
2019-02-23T13:46:21.169Z,8.87
2019-02-23T13:49:45.807Z,7.37
2019-02-23T13:53:05.656Z,8.10
2019-02-23T13:56:44.943Z,7.63
2019-02-23T14:00:13.397Z,8.47
2019-02-23T14:03:43.114Z,9.10
2019-02-23T14:06:51.768Z,8.73
2019-02-23T14:10:16.390Z,8.00
2019-02-23T14:13:13.627Z,8.43
2019-02-23T14:16:21.871Z,8.20
2019-02-23T14:19:36.635Z,9.17
2019-02-23T14:23:03.770Z,9.50
2019-02-23T14:26:25.767Z,9.67
2019-02-23T14:29:25.459Z,12.30
2019-02-23T14:32:55.090Z,10.50
2019-02-23T14:36:31.619Z,13.47
2019-02-23T14:40:12.233Z,14.40
2019-02-23T14:43:33.120Z,11.23
2019-02-23T14:47:05.209Z,11.83
2019-02-23T14:50:32.572Z,11.27
2019-02-23T14:53:51.555Z,11.63
2019-02-23T14:57:36.356Z,13.07
2019-02-23T15:00:45.340Z,11.30
2019-02-23T15:04:34.129Z,11.90
2019-02-23T15:08:14.023Z,11.43
2019-02-23T15:11:46.594Z,10.40
2019-02-23T15:15:23.844Z,11.13
2019-02-23T15:18:58.957Z,11.23
2019-02-23T15:22:33.105Z,12.03
2019-02-23T15:25:50.397Z,14.83
2019-02-23T15:29:18.374Z,11.83
2019-02-23T15:32:37.006Z,11.23
2019-02-23T15:36:01.793Z,12.27
2019-02-23T15:39:36.484Z,15.23
2019-02-23T15:42:49.929Z,13.60
2019-02-23T15:45:55.399Z,15.67
2019-02-23T15:49:12.915Z,14.07
2019-02-23T15:51:44.900Z,15.37
2019-02-23T15:54:16.016Z,18.53
2019-02-23T15:56:47.801Z,23.20
2019-02-23T15:59:19.980Z,23.37
2019-02-23T16:01:51.898Z,24.43
2019-02-23T16:04:23.937Z,27.70
2019-02-23T16:06:55.949Z,32.30
2019-02-23T16:09:28.151Z,86.90
2019-02-23T16:12:00.076Z,55.60
2019-02-23T16:14:31.927Z,118.73
2019-02-23T16:17:04.015Z,146.07
2019-02-23T16:19:36.075Z,80.40
2019-02-23T16:22:08.135Z,92.53
2019-02-23T16:24:39.844Z,113.23
2019-02-23T16:27:11.970Z,124.33
2019-02-23T16:29:43.887Z,167.03
2019-02-23T16:32:15.827Z,150.37
2019-02-23T16:34:47.830Z,185.93
2019-02-23T16:37:19.827Z,194.27
2019-02-23T16:39:51.632Z,189.23
2019-02-23T16:42:23.457Z,198.67
2019-02-23T16:44:55.413Z,184.30
2019-02-23T16:47:27.369Z,191.53
2019-02-23T16:49:59.467Z,196.87
2019-02-23T16:52:31.449Z,201.93
2019-02-23T16:55:03.183Z,255.87
2019-02-23T16:57:35.182Z,220.80
2019-02-23T17:00:07.337Z,196.67
2019-02-23T17:02:38.371Z,232.83
2019-02-23T17:05:09.716Z,186.97
2019-02-23T17:07:41.556Z,203.93
2019-02-23T17:10:12.797Z,187.03
2019-02-23T17:12:43.835Z,208.83
2019-02-23T17:15:15.082Z,216.53
2019-02-23T17:17:46.208Z,181.13
2019-02-23T17:20:18.206Z,174.73
2019-02-23T17:22:50.114Z,150.03
2019-02-23T17:25:22.148Z,196.63
2019-02-23T17:27:53.564Z,379.87
2019-02-23T17:30:25.517Z,482.40
2019-02-23T17:32:57.447Z,479.60
2019-02-23T17:35:29.393Z,426.27
2019-02-23T17:38:01.251Z,417.57
2019-02-23T17:40:33.178Z,435.67
2019-02-23T17:43:04.167Z,388.93
2019-02-23T17:45:35.205Z,428.50
2019-02-23T17:48:06.245Z,450.73
2019-02-23T17:50:37.286Z,445.77
2019-02-23T17:53:08.428Z,465.67
2019-02-23T17:55:39.448Z,492.50
2019-02-23T17:58:10.487Z,453.43
2019-02-23T18:00:41.514Z,468.43
2019-02-23T18:03:12.565Z,387.07
2019-02-23T18:05:43.600Z,365.23
2019-02-23T18:08:14.651Z,281.97
2019-02-23T18:10:45.714Z,341.17
2019-02-23T18:13:16.737Z,374.87
2019-02-23T18:15:47.779Z,428.13
2019-02-23T18:18:18.817Z,279.90
2019-02-23T18:20:49.835Z,175.90
2019-02-23T18:23:20.869Z,296.83
2019-02-23T18:25:51.891Z,214.07
2019-02-23T18:28:22.956Z,184.97
2019-02-23T18:30:53.996Z,290.27
2019-02-23T18:33:25.038Z,348.53
